sensor_id;sensor_type;location;lat;lon;timestamp;pressure;altitude;pressure_sealevel;temperature;humidity
3122;BME280;1571;52.524;14.104;2022-11-20T00:01:11;100663.13;;;-0.37;100.00
3122;BME280;1571;52.524;14.104;2022-11-20T00:03:41;100663.00;;;-0.31;100.00
3122;BME280;1571;52.524;14.104;2022-11-20T00:06:11;100664.13;;;-0.46;100.00
3122;BME280;1571;52.524;14.104;2022-11-20T00:08:40;100656.97;;;-0.34;100.00
3122;BME280;1571;52.524;14.104;2022-11-20T00:11:10;100657.16;;;-0.45;100.00
3122;BME280;1571;52.524;14.104;2022-11-20T00:13:42;100658.13;;;-0.49;100.00
3122;BME280;1571;52.524;14.104;2022-11-20T00:16:12;100657.03;;;-0.37;100.00
3122;BME280;1571;52.524;14.104;2022-11-20T00:18:43;100662.06;;;-0.27;100.00
3122;BME280;1571;52.524;14.104;2022-11-20T00:21:12;100659.47;;;-0.28;100.00
3122;BME280;1571;52.524;14.104;2022-11-20T00:23:41;100664.03;;;-0.38;100.00
3122;BME280;1571;52.524;14.104;2022-11-20T00:26:12;100657.91;;;-0.37;100.00
3122;BME280;1571;52.524;14.104;2022-11-20T00:28:41;100658.00;;;-0.43;100.00
3122;BME280;1571;52.524;14.104;2022-11-20T00:31:11;100663.22;;;-0.43;100.00
3122;BME280;1571;52.524;14.104;2022-11-20T00:33:40;100667.47;;;-0.36;100.00
3122;BME280;1571;52.524;14.104;2022-11-20T00:36:11;100663.13;;;-0.38;100.00
3122;BME280;1571;52.524;14.104;2022-11-20T00:38:39;100668.41;;;-0.40;100.00
3122;BME280;1571;52.524;14.104;2022-11-20T00:41:08;100663.97;;;-0.36;100.00
3122;BME280;1571;52.524;14.104;2022-11-20T00:43:37;100668.44;;;-0.43;100.00
3122;BME280;1571;52.524;14.104;2022-11-20T00:46:07;100661.59;;;-0.47;100.00
3122;BME280;1571;52.524;14.104;2022-11-20T00:48:36;100652.59;;;-0.34;100.00
3122;BME280;1571;52.524;14.104;2022-11-20T00:51:04;100656.19;;;-0.38;100.00
3122;BME280;1571;52.524;14.104;2022-11-20T00:53:34;100655.34;;;-0.40;100.00
3122;BME280;1571;52.524;14.104;2022-11-20T00:56:05;100659.94;;;-0.54;100.00
3122;BME280;1571;52.524;14.104;2022-11-20T00:58:35;100662.38;;;-0.45;100.00
3122;BME280;1571;52.524;14.104;2022-11-20T01:01:05;100659.75;;;-0.42;100.00
3122;BME280;1571;52.524;14.104;2022-11-20T01:03:35;100660.78;;;-0.52;100.00
3122;BME280;1571;52.524;14.104;2022-11-20T01:06:06;100671.72;;;-0.32;100.00
3122;BME280;1571;52.524;14.104;2022-11-20T01:08:37;100663.28;;;-0.45;100.00
3122;BME280;1571;52.524;14.104;2022-11-20T01:11:08;100666.47;;;-0.32;100.00
3122;BME280;1571;52.524;14.104;2022-11-20T01:13:36;100671.19;;;-0.51;100.00
3122;BME280;1571;52.524;14.104;2022-11-20T01:16:06;100668.75;;;-0.58;100.00
3122;BME280;1571;52.524;14.104;2022-11-20T01:18:35;100659.63;;;-0.36;100.00
3122;BME280;1571;52.524;14.104;2022-11-20T01:21:06;100651.16;;;-0.49;100.00
3122;BME280;1571;52.524;14.104;2022-11-20T01:23:38;100653.63;;;-0.41;100.00
3122;BME280;1571;52.524;14.104;2022-11-20T01:26:07;100652.69;;;-0.38;100.00
3122;BME280;1571;52.524;14.104;2022-11-20T01:28:38;100642.59;;;-0.55;100.00
3122;BME280;1571;52.524;14.104;2022-11-20T01:31:11;100637.38;;;-0.55;100.00
3122;BME280;1571;52.524;14.104;2022-11-20T01:33:40;100638.25;;;-0.56;100.00
3122;BME280;1571;52.524;14.104;2022-11-20T01:36:09;100640.41;;;-0.32;100.00
3122;BME280;1571;52.524;14.104;2022-11-20T01:38:39;100642.59;;;-0.55;100.00
3122;BME280;1571;52.524;14.104;2022-11-20T01:41:08;100640.84;;;-0.55;100.00
3122;BME280;1571;52.524;14.104;2022-11-20T01:43:37;100635.69;;;-0.58;100.00
3122;BME280;1571;52.524;14.104;2022-11-20T01:46:14;100640.41;;;-0.32;100.00
3122;BME280;1571;52.524;14.104;2022-11-20T01:48:48;100630.03;;;-0.35;100.00
3122;BME280;1571;52.524;14.104;2022-11-20T01:51:25;100629.38;;;-0.46;100.00
3122;BME280;1571;52.524;14.104;2022-11-20T01:53:59;100629.66;;;-0.61;100.00
3122;BME280;1571;52.524;14.104;2022-11-20T01:56:31;100631.69;;;-0.79;100.00
3122;BME280;1571;52.524;14.104;2022-11-20T01:59:04;100632.50;;;-0.74;100.00
3122;BME280;1571;52.524;14.104;2022-11-20T02:01:33;100625.22;;;-0.56;100.00
3122;BME280;1571;52.524;14.104;2022-11-20T02:04:02;100631.31;;;-0.57;100.00
3122;BME280;1571;52.524;14.104;2022-11-20T02:06:34;100630.28;;;-0.47;100.00
3122;BME280;1571;52.524;14.104;2022-11-20T02:09:05;100637.38;;;-0.55;100.00
3122;BME280;1571;52.524;14.104;2022-11-20T02:11:33;100627.88;;;-0.58;100.00
3122;BME280;1571;52.524;14.104;2022-11-20T02:14:01;100630.44;;;-0.56;100.00
3122;BME280;1571;52.524;14.104;2022-11-20T02:16:31;100623.81;;;-0.74;100.00
3122;BME280;1571;52.524;14.104;2022-11-20T02:19:02;100619.34;;;-0.68;100.00
3122;BME280;1571;52.524;14.104;2022-11-20T02:21:35;100627.13;;;-0.65;100.00
3122;BME280;1571;52.524;14.104;2022-11-20T02:24:09;100625.34;;;-0.63;100.00
3122;BME280;1571;52.524;14.104;2022-11-20T02:26:41;100619.09;;;-0.54;100.00
3122;BME280;1571;52.524;14.104;2022-11-20T02:29:10;100626.22;;;-0.64;100.00
3122;BME280;1571;52.524;14.104;2022-11-20T02:31:41;100612.69;;;-0.84;100.00
3122;BME280;1571;52.524;14.104;2022-11-20T02:34:10;100621.25;;;-0.77;100.00
3122;BME280;1571;52.524;14.104;2022-11-20T02:36:40;100613.44;;;-0.79;100.00
3122;BME280;1571;52.524;14.104;2022-11-20T02:39:11;100619.22;;;-0.61;100.00
3122;BME280;1571;52.524;14.104;2022-11-20T02:41:43;100617.09;;;-0.41;100.00
3122;BME280;1571;52.524;14.104;2022-11-20T02:44:12;100614.91;;;-0.63;100.00
3122;BME280;1571;52.524;14.104;2022-11-20T02:46:40;100611.56;;;-0.71;100.00
3122;BME280;1571;52.524;14.104;2022-11-20T02:49:08;100613.91;;;-0.55;100.00
3122;BME280;1571;52.524;14.104;2022-11-20T02:51:37;100616.72;;;-0.68;100.00
3122;BME280;1571;52.524;14.104;2022-11-20T02:54:05;100613.41;;;-0.76;100.00
3122;BME280;1571;52.524;14.104;2022-11-20T02:56:37;100613.41;;;-0.76;100.00
3122;BME280;1571;52.524;14.104;2022-11-20T02:59:05;100614.13;;;-0.68;100.00
3122;BME280;1571;52.524;14.104;2022-11-20T03:01:34;100607.75;;;-0.51;100.00
3122;BME280;1571;52.524;14.104;2022-11-20T03:04:02;100607.94;;;-0.60;100.00
3122;BME280;1571;52.524;14.104;2022-11-20T03:06:31;100608.94;;;-0.69;100.00
3122;BME280;1571;52.524;14.104;2022-11-20T03:08:59;100607.03;;;-0.61;100.00
3122;BME280;1571;52.524;14.104;2022-11-20T03:11:28;100595.66;;;-0.55;100.00
3122;BME280;1571;52.524;14.104;2022-11-20T03:14:01;100603.03;;;-0.34;100.00
3122;BME280;1571;52.524;14.104;2022-11-20T03:16:30;100602.66;;;-0.57;100.00
3122;BME280;1571;52.524;14.104;2022-11-20T03:18:59;100593.81;;;-0.50;100.00
3122;BME280;1571;52.524;14.104;2022-11-20T03:21:28;100597.31;;;-0.51;100.00
3122;BME280;1571;52.524;14.104;2022-11-20T03:23:56;100594.66;;;-0.50;100.00
3122;BME280;1571;52.524;14.104;2022-11-20T03:26:25;100590.44;;;-0.55;100.00
3122;BME280;1571;52.524;14.104;2022-11-20T03:28:55;100588.03;;;-0.66;100.00
3122;BME280;1571;52.524;14.104;2022-11-20T03:31:27;100586.75;;;-0.45;100.00
3122;BME280;1571;52.524;14.104;2022-11-20T03:33:56;100591.84;;;-0.39;100.00
3122;BME280;1571;52.524;14.104;2022-11-20T03:36:26;100588.78;;;-0.59;100.00
3122;BME280;1571;52.524;14.104;2022-11-20T03:38:55;100588.94;;;-0.69;100.00
3122;BME280;1571;52.524;14.104;2022-11-20T03:41:25;100585.78;;;-0.39;100.00
3122;BME280;1571;52.524;14.104;2022-11-20T03:43:56;100590.44;;;-0.55;100.00
3122;BME280;1571;52.524;14.104;2022-11-20T03:46:27;100586.22;;;-0.63;100.00
3122;BME280;1571;52.524;14.104;2022-11-20T03:48:56;100583.66;;;-0.66;100.00
3122;BME280;1571;52.524;14.104;2022-11-20T03:51:26;100591.44;;;-0.63;100.00
3122;BME280;1571;52.524;14.104;2022-11-20T03:54:00;100585.28;;;-0.58;100.00
3122;BME280;1571;52.524;14.104;2022-11-20T03:56:30;100587.16;;;-0.67;100.00
3122;BME280;1571;52.524;14.104;2022-11-20T03:58:59;100579.19;;;-0.57;100.00
3122;BME280;1571;52.524;14.104;2022-11-20T04:01:32;100581.72;;;-0.54;100.00
3122;BME280;1571;52.524;14.104;2022-11-20T04:04:01;100571.47;;;-0.64;100.00
3122;BME280;1571;52.524;14.104;2022-11-20T04:06:33;100574.72;;;-0.52;100.00
3122;BME280;1571;52.524;14.104;2022-11-20T04:09:01;100565.97;;;-0.48;100.00
3122;BME280;1571;52.524;14.104;2022-11-20T04:11:31;100570.38;;;-0.52;100.00
3122;BME280;1571;52.524;14.104;2022-11-20T04:14:01;100562.69;;;-0.59;100.00
3122;BME280;1571;52.524;14.104;2022-11-20T04:16:34;100559.63;;;-0.81;100.00
3122;BME280;1571;52.524;14.104;2022-11-20T04:19:09;100568.00;;;-0.64;100.00
3122;BME280;1571;52.524;14.104;2022-11-20T04:21:38;100569.66;;;-0.60;100.00
3122;BME280;1571;52.524;14.104;2022-11-20T04:24:07;100566.13;;;-0.57;100.00
3122;BME280;1571;52.524;14.104;2022-11-20T04:26:35;100564.75;;;-0.77;100.00
3122;BME280;1571;52.524;14.104;2022-11-20T04:29:03;100563.25;;;-0.90;100.00
3122;BME280;1571;52.524;14.104;2022-11-20T04:31:34;100568.25;;;-0.78;100.00
3122;BME280;1571;52.524;14.104;2022-11-20T04:34:04;100568.16;;;-0.72;100.00
3122;BME280;1571;52.524;14.104;2022-11-20T04:36:33;100575.97;;;-0.72;100.00
3122;BME280;1571;52.524;14.104;2022-11-20T04:39:04;100561.31;;;-0.79;100.00
3122;BME280;1571;52.524;14.104;2022-11-20T04:41:34;100564.06;;;-0.87;100.00
3122;BME280;1571;52.524;14.104;2022-11-20T04:44:05;100564.84;;;-0.81;100.00
3122;BME280;1571;52.524;14.104;2022-11-20T04:46:36;100562.47;;;-0.92;100.00
3122;BME280;1571;52.524;14.104;2022-11-20T04:49:05;100555.16;;;-0.73;100.00
3122;BME280;1571;52.524;14.104;2022-11-20T04:51:33;100553.53;;;-0.80;100.00
3122;BME280;1571;52.524;14.104;2022-11-20T04:54:02;100556.19;;;-0.84;100.00
3122;BME280;1571;52.524;14.104;2022-11-20T04:56:30;100552.56;;;-0.75;100.00
3122;BME280;1571;52.524;14.104;2022-11-20T04:59:00;100551.13;;;-0.91;100.00
3122;BME280;1571;52.524;14.104;2022-11-20T05:01:28;100548.44;;;-0.87;100.00
3122;BME280;1571;52.524;14.104;2022-11-20T05:03:58;100548.34;;;-0.80;100.00
3122;BME280;1571;52.524;14.104;2022-11-20T05:06:26;100543.97;;;-0.80;100.00
3122;BME280;1571;52.524;14.104;2022-11-20T05:08:54;100550.97;;;-0.82;100.00
3122;BME280;1571;52.524;14.104;2022-11-20T05:11:23;100547.16;;;-0.66;100.00
3122;BME280;1571;52.524;14.104;2022-11-20T05:13:51;100540.41;;;-0.74;100.00
3122;BME280;1571;52.524;14.104;2022-11-20T05:16:21;100550.22;;;-0.89;100.00
3122;BME280;1571;52.524;14.104;2022-11-20T05:18:52;100549.72;;;-1.11;100.00
3122;BME280;1571;52.524;14.104;2022-11-20T05:21:22;100551.13;;;-0.90;100.00
3122;BME280;1571;52.524;14.104;2022-11-20T05:23:50;100548.53;;;-0.91;100.00
3122;BME280;1571;52.524;14.104;2022-11-20T05:26:20;100552.06;;;-0.95;100.00
3122;BME280;1571;52.524;14.104;2022-11-20T05:28:49;100544.16;;;-0.89;100.00
3122;BME280;1571;52.524;14.104;2022-11-20T05:31:19;100547.47;;;-0.81;100.00
3122;BME280;1571;52.524;14.104;2022-11-20T05:33:54;100542.94;;;-0.71;100.00
3122;BME280;1571;52.524;14.104;2022-11-20T05:36:25;100544.06;;;-0.85;100.00
3122;BME280;1571;52.524;14.104;2022-11-20T05:38:53;100542.53;;;-0.96;100.00
3122;BME280;1571;52.524;14.104;2022-11-20T05:41:27;100540.56;;;-0.84;100.00
3122;BME280;1571;52.524;14.104;2022-11-20T05:43:56;100533.69;;;-0.88;100.00
3122;BME280;1571;52.524;14.104;2022-11-20T05:46:25;100532.72;;;-0.82;100.00
3122;BME280;1571;52.524;14.104;2022-11-20T05:48:56;100525.81;;;-0.85;100.00
3122;BME280;1571;52.524;14.104;2022-11-20T05:51:26;100532.66;;;-0.79;100.00
3122;BME280;1571;52.524;14.104;2022-11-20T05:53:56;100534.56;;;-0.87;100.00
3122;BME280;1571;52.524;14.104;2022-11-20T05:56:24;100528.50;;;-0.89;100.00
3122;BME280;1571;52.524;14.104;2022-11-20T05:58:52;100521.72;;;-0.99;100.00
3122;BME280;1571;52.524;14.104;2022-11-20T06:01:22;100526.19;;;-1.05;100.00
3122;BME280;1571;52.524;14.104;2022-11-20T06:03:52;100522.53;;;-0.94;100.00
3122;BME280;1571;52.524;14.104;2022-11-20T06:06:20;100521.78;;;-1.01;100.00
3122;BME280;1571;52.524;14.104;2022-11-20T06:08:50;100524.25;;;-0.95;100.00
3122;BME280;1571;52.524;14.104;2022-11-20T06:11:18;100521.03;;;-1.08;100.00
3122;BME280;1571;52.524;14.104;2022-11-20T06:13:47;100525.13;;;-0.94;100.00
3122;BME280;1571;52.524;14.104;2022-11-20T06:16:17;100517.50;;;-1.05;100.00
3122;BME280;1571;52.524;14.104;2022-11-20T06:18:46;100522.75;;;-1.07;100.00
3122;BME280;1571;52.524;14.104;2022-11-20T06:21:16;100517.69;;;-1.14;100.00
3122;BME280;1571;52.524;14.104;2022-11-20T06:23:45;100515.09;;;-1.16;100.00
3122;BME280;1571;52.524;14.104;2022-11-20T06:26:16;100522.84;;;-1.13;100.00
3122;BME280;1571;52.524;14.104;2022-11-20T06:28:45;100520.97;;;-1.06;100.00
3122;BME280;1571;52.524;14.104;2022-11-20T06:31:15;100524.84;;;-1.29;100.00
3122;BME280;1571;52.524;14.104;2022-11-20T06:33:43;100521.31;;;-1.23;100.00
3122;BME280;1571;52.524;14.104;2022-11-20T06:36:13;100527.28;;;-1.18;100.00
3122;BME280;1571;52.524;14.104;2022-11-20T06:38:42;100525.78;;;-1.31;100.00
3122;BME280;1571;52.524;14.104;2022-11-20T06:41:12;100518.78;;;-1.29;100.00
3122;BME280;1571;52.524;14.104;2022-11-20T06:43:42;100523.22;;;-1.33;100.00
3122;BME280;1571;52.524;14.104;2022-11-20T06:46:13;100521.31;;;-1.24;100.00
3122;BME280;1571;52.524;14.104;2022-11-20T06:48:41;100523.00;;;-1.22;100.00
3122;BME280;1571;52.524;14.104;2022-11-20T06:51:09;100517.84;;;-1.25;100.00
3122;BME280;1571;52.524;14.104;2022-11-20T06:53:38;100517.78;;;-1.20;100.00
3122;BME280;1571;52.524;14.104;2022-11-20T06:56:07;100511.06;;;-1.34;100.00
3122;BME280;1571;52.524;14.104;2022-11-20T06:58:35;100515.19;;;-1.22;100.00
3122;BME280;1571;52.524;14.104;2022-11-20T07:01:06;100514.34;;;-1.22;100.00
3122;BME280;1571;52.524;14.104;2022-11-20T07:03:35;100516.00;;;-1.17;100.00
3122;BME280;1571;52.524;14.104;2022-11-20T07:06:05;100515.84;;;-1.09;100.00
3122;BME280;1571;52.524;14.104;2022-11-20T07:08:33;100511.56;;;-1.12;100.00
3122;BME280;1571;52.524;14.104;2022-11-20T07:11:03;100515.94;;;-1.14;100.00
3122;BME280;1571;52.524;14.104;2022-11-20T07:13:32;100520.09;;;-1.03;100.00
3122;BME280;1571;52.524;14.104;2022-11-20T07:16:01;100513.34;;;-1.15;100.00
3122;BME280;1571;52.524;14.104;2022-11-20T07:18:31;100515.16;;;-1.19;100.00
3122;BME280;1571;52.524;14.104;2022-11-20T07:21:00;100518.53;;;-1.14;100.00
3122;BME280;1571;52.524;14.104;2022-11-20T07:23:28;100514.28;;;-1.19;100.00
3122;BME280;1571;52.524;14.104;2022-11-20T07:25:56;100514.13;;;-1.10;100.00
3122;BME280;1571;52.524;14.104;2022-11-20T07:28:24;100508.69;;;-0.99;100.00
3122;BME280;1571;52.524;14.104;2022-11-20T07:30:53;100505.16;;;-0.95;100.00
3122;BME280;1571;52.524;14.104;2022-11-20T07:33:21;100505.44;;;-1.11;100.00
3122;BME280;1571;52.524;14.104;2022-11-20T07:35:51;100500.13;;;-1.06;100.00
3122;BME280;1571;52.524;14.104;2022-11-20T07:38:19;100505.50;;;-1.12;100.00
3122;BME280;1571;52.524;14.104;2022-11-20T07:40:48;100501.19;;;-1.15;100.00
3122;BME280;1571;52.524;14.104;2022-11-20T07:43:16;100506.06;;;-0.96;100.00
3122;BME280;1571;52.524;14.104;2022-11-20T07:45:44;100505.13;;;-0.94;100.00
3122;BME280;1571;52.524;14.104;2022-11-20T07:48:12;100507.84;;;-0.98;100.00
3122;BME280;1571;52.524;14.104;2022-11-20T07:50:40;100504.31;;;-0.96;100.00
3122;BME280;1571;52.524;14.104;2022-11-20T07:53:10;100493.53;;;-0.77;100.00
3122;BME280;1571;52.524;14.104;2022-11-20T07:55:39;100497.97;;;-0.81;100.00
3122;BME280;1571;52.524;14.104;2022-11-20T07:58:07;100495.00;;;-0.66;100.00
3122;BME280;1571;52.524;14.104;2022-11-20T08:00:36;100485.66;;;-0.74;100.00
3122;BME280;1571;52.524;14.104;2022-11-20T08:03:04;100488.94;;;-0.65;100.00
3122;BME280;1571;52.524;14.104;2022-11-20T08:05:33;100479.19;;;-0.56;100.00
3122;BME280;1571;52.524;14.104;2022-11-20T08:08:01;100478.63;;;-0.71;100.00
3122;BME280;1571;52.524;14.104;2022-11-20T08:10:31;100477.13;;;-0.82;100.00
3122;BME280;1571;52.524;14.104;2022-11-20T08:12:59;100480.06;;;-0.56;100.00
3122;BME280;1571;52.524;14.104;2022-11-20T08:15:48;100474.75;;;-0.51;100.00
3122;BME280;1571;52.524;14.104;2022-11-20T08:18:17;100480.84;;;-0.52;100.00
3122;BME280;1571;52.524;14.104;2022-11-20T08:21:02;100480.00;;;-0.54;100.00
3122;BME280;1571;52.524;14.104;2022-11-20T08:23:30;100478.53;;;-0.66;100.00
3122;BME280;1571;52.524;14.104;2022-11-20T08:26:00;100475.00;;;-0.64;100.00
3122;BME280;1571;52.524;14.104;2022-11-20T08:28:28;100479.75;;;-0.40;100.00
3122;BME280;1571;52.524;14.104;2022-11-20T08:30:58;100470.59;;;-0.61;100.00
3122;BME280;1571;52.524;14.104;2022-11-20T08:33:27;100478.97;;;-0.46;100.00
3122;BME280;1571;52.524;14.104;2022-11-20T08:35:59;100472.72;;;-0.38;100.00
3122;BME280;1571;52.524;14.104;2022-11-20T08:38:28;100471.47;;;-0.61;100.00
3122;BME280;1571;52.524;14.104;2022-11-20T08:40:57;100474.69;;;-0.48;100.00
3122;BME280;1571;52.524;14.104;2022-11-20T08:43:44;100457.94;;;-0.38;100.00
3122;BME280;1571;52.524;14.104;2022-11-20T08:46:13;100454.34;;;-0.34;100.00
3122;BME280;1571;52.524;14.104;2022-11-20T08:48:41;100455.19;;;-0.32;100.00
3122;BME280;1571;52.524;14.104;2022-11-20T08:51:10;100455.25;;;-0.35;100.00
3122;BME280;1571;52.524;14.104;2022-11-20T08:53:39;100458.72;;;-0.34;100.00
3122;BME280;1571;52.524;14.104;2022-11-20T08:56:08;100468.94;;;-0.24;100.00
3122;BME280;1571;52.524;14.104;2022-11-20T08:58:37;100466.91;;;-0.11;100.00
3122;BME280;1571;52.524;14.104;2022-11-20T09:01:28;100462.28;;;-0.38;100.00
3122;BME280;1571;52.524;14.104;2022-11-20T09:03:57;100463.38;;;-0.08;100.00
3122;BME280;1571;52.524;14.104;2022-11-20T09:06:26;100467.13;;;-0.20;100.00
3122;BME280;1571;52.524;14.104;2022-11-20T09:08:54;100464.31;;;-0.12;100.00
3122;BME280;1571;52.524;14.104;2022-11-20T09:11:29;100461.19;;;-0.27;100.00
3122;BME280;1571;52.524;14.104;2022-11-20T09:13:57;100462.03;;;-0.26;100.00
3122;BME280;1571;52.524;14.104;2022-11-20T09:16:27;100450.03;;;-0.33;100.00
3122;BME280;1571;52.524;14.104;2022-11-20T09:18:55;100449.81;;;-0.24;100.00
3122;BME280;1571;52.524;14.104;2022-11-20T09:21:43;100448.34;;;-0.36;100.00
3122;BME280;1571;52.524;14.104;2022-11-20T09:24:11;100452.97;;;-0.11;100.00
3122;BME280;1571;52.524;14.104;2022-11-20T09:26:39;100453.97;;;-0.15;100.00
3122;BME280;1571;52.524;14.104;2022-11-20T09:29:07;100445.94;;;0.30;100.00
3122;BME280;1571;52.524;14.104;2022-11-20T09:31:37;100444.56;;;0.13;100.00
3122;BME280;1571;52.524;14.104;2022-11-20T09:34:05;100444.19;;;0.29;100.00
3122;BME280;1571;52.524;14.104;2022-11-20T09:36:33;100443.81;;;0.44;100.00
3122;BME280;1571;52.524;14.104;2022-11-20T09:39:02;100445.69;;;0.39;100.00
3122;BME280;1571;52.524;14.104;2022-11-20T09:41:44;100445.69;;;0.39;100.00
3122;BME280;1571;52.524;14.104;2022-11-20T09:44:30;100442.72;;;0.18;100.00
3122;BME280;1571;52.524;14.104;2022-11-20T09:47:07;100446.63;;;0.36;100.00
3122;BME280;1571;52.524;14.104;2022-11-20T09:49:49;100439.78;;;0.32;100.00
3122;BME280;1571;52.524;14.104;2022-11-20T09:52:25;100437.56;;;0.15;100.00
3122;BME280;1571;52.524;14.104;2022-11-20T09:54:56;100442.78;;;0.15;100.00
3122;BME280;1571;52.524;14.104;2022-11-20T09:57:31;100436.22;;;-0.01;100.00
3122;BME280;1571;52.524;14.104;2022-11-20T10:00:02;100431.91;;;-0.02;100.00
3122;BME280;1571;52.524;14.104;2022-11-20T10:02:42;100437.16;;;-0.04;100.00
3122;BME280;1571;52.524;14.104;2022-11-20T10:05:17;100422.06;;;0.09;100.00
3122;BME280;1571;52.524;14.104;2022-11-20T10:07:51;100431.69;;;0.07;100.00
3122;BME280;1571;52.524;14.104;2022-11-20T10:10:30;100439.44;;;0.10;100.00
3122;BME280;1571;52.524;14.104;2022-11-20T10:13:17;100437.44;;;0.20;100.00
3122;BME280;1571;52.524;14.104;2022-11-20T10:15:58;100442.78;;;0.15;100.00
3122;BME280;1571;52.524;14.104;2022-11-20T10:18:43;100436.31;;;-0.04;100.00
3122;BME280;1571;52.524;14.104;2022-11-20T10:21:23;100434.88;;;-0.17;100.00
3122;BME280;1571;52.524;14.104;2022-11-20T10:27:17;100429.13;;;0.04;100.00
3122;BME280;1571;52.524;14.104;2022-11-20T10:30:00;100433.00;;;-0.12;100.00
3122;BME280;1571;52.524;14.104;2022-11-20T10:32:33;100432.28;;;-0.19;100.00
3122;BME280;1571;52.524;14.104;2022-11-20T10:35:14;100427.66;;;-0.06;100.00
3122;BME280;1571;52.524;14.104;2022-11-20T10:37:47;100418.16;;;-0.09;100.00
3122;BME280;1571;52.524;14.104;2022-11-20T10:40:25;100419.81;;;-0.06;100.00
3122;BME280;1571;52.524;14.104;2022-11-20T10:42:57;100427.66;;;-0.06;100.00
3122;BME280;1571;52.524;14.104;2022-11-20T10:45:39;100422.72;;;-0.18;100.00
3122;BME280;1571;52.524;14.104;2022-11-20T10:48:14;100417.09;;;0.00;100.00
3122;BME280;1571;52.524;14.104;2022-11-20T10:50:53;100423.41;;;0.26;100.00
3122;BME280;1571;52.524;14.104;2022-11-20T10:53:35;100425.75;;;0.36;100.00
3122;BME280;1571;52.524;14.104;2022-11-20T10:56:14;100423.25;;;0.32;100.00
3122;BME280;1571;52.524;14.104;2022-11-20T10:58:50;100417.34;;;0.25;100.00
3122;BME280;1571;52.524;14.104;2022-11-20T11:01:21;100420.56;;;0.35;100.00
3122;BME280;1571;52.524;14.104;2022-11-20T11:03:51;100410.13;;;0.35;100.00
3122;BME280;1571;52.524;14.104;2022-11-20T11:06:27;100417.94;;;0.35;100.00
3122;BME280;1571;52.524;14.104;2022-11-20T11:09:00;100415.22;;;0.39;100.00
3122;BME280;1571;52.524;14.104;2022-11-20T11:11:32;100414.38;;;0.39;100.00
3122;BME280;1571;52.524;14.104;2022-11-20T11:14:04;100413.53;;;0.37;100.00
3122;BME280;1571;52.524;14.104;2022-11-20T11:16:33;100417.16;;;0.66;100.00
3122;BME280;1571;52.524;14.104;2022-11-20T11:19:05;100415.75;;;0.52;100.00
3122;BME280;1571;52.524;14.104;2022-11-20T11:21:35;100401.88;;;0.50;100.00
3122;BME280;1571;52.524;14.104;2022-11-20T11:24:18;100400.94;;;0.53;100.00
3122;BME280;1571;52.524;14.104;2022-11-20T11:27:12;100393.91;;;0.56;100.00
3122;BME280;1571;52.524;14.104;2022-11-20T11:29:44;100398.06;;;0.64;100.00
3122;BME280;1571;52.524;14.104;2022-11-20T11:32:14;100384.56;;;0.79;100.00
3122;BME280;1571;52.524;14.104;2022-11-20T11:34:42;100385.63;;;0.72;100.00
3122;BME280;1571;52.524;14.104;2022-11-20T11:37:16;100396.16;;;0.36;100.00
3122;BME280;1571;52.524;14.104;2022-11-20T11:39:46;100386.34;;;0.46;100.00
3122;BME280;1571;52.524;14.104;2022-11-20T11:42:30;100389.88;;;0.43;100.00
3122;BME280;1571;52.524;14.104;2022-11-20T11:44:59;100372.34;;;0.48;100.00
3122;BME280;1571;52.524;14.104;2022-11-20T11:47:36;100377.56;;;0.48;100.00
3122;BME280;1571;52.524;14.104;2022-11-20T11:50:15;100375.75;;;0.50;100.00
3122;BME280;1571;52.524;14.104;2022-11-20T11:52:51;100373.72;;;0.61;100.00
3122;BME280;1571;52.524;14.104;2022-11-20T11:55:28;100373.00;;;0.56;100.00
3122;BME280;1571;52.524;14.104;2022-11-20T11:58:08;100369.78;;;0.78;100.00
3122;BME280;1571;52.524;14.104;2022-11-20T12:00:41;100373.84;;;0.88;100.00
3122;BME280;1571;52.524;14.104;2022-11-20T12:03:15;100370.56;;;0.81;100.00
3122;BME280;1571;52.524;14.104;2022-11-20T12:05:49;100361.91;;;1.09;100.00
3122;BME280;1571;52.524;14.104;2022-11-20T12:08:23;100357.69;;;1.03;100.00
3122;BME280;1571;52.524;14.104;2022-11-20T12:10:56;100355.09;;;1.03;100.00
3122;BME280;1571;52.524;14.104;2022-11-20T12:13:35;100351.03;;;1.23;100.00
3122;BME280;1571;52.524;14.104;2022-11-20T12:16:10;100345.56;;;1.02;100.00
3122;BME280;1571;52.524;14.104;2022-11-20T12:18:40;100351.41;;;1.11;100.00
3122;BME280;1571;52.524;14.104;2022-11-20T12:21:18;100349.25;;;1.25;100.00
3122;BME280;1571;52.524;14.104;2022-11-20T12:24:02;100357.22;;;1.20;100.00
3122;BME280;1571;52.524;14.104;2022-11-20T12:26:51;100349.84;;;1.03;100.00
3122;BME280;1571;52.524;14.104;2022-11-20T12:29:30;100364.00;;;0.96;100.00
3122;BME280;1571;52.524;14.104;2022-11-20T12:32:10;100362.09;;;0.72;100.00
3122;BME280;1571;52.524;14.104;2022-11-20T12:34:53;100361.19;;;0.41;100.00
3122;BME280;1571;52.524;14.104;2022-11-20T12:37:35;100354.53;;;0.62;100.00
3122;BME280;1571;52.524;14.104;2022-11-20T12:40:21;100354.25;;;0.72;100.00
3122;BME280;1571;52.524;14.104;2022-11-20T12:42:59;100352.66;;;0.68;100.00
3122;BME280;1571;52.524;14.104;2022-11-20T12:46:12;100350.09;;;0.65;100.00
3122;BME280;1571;52.524;14.104;2022-11-20T12:49:02;100354.78;;;0.53;100.00
3122;BME280;1571;52.524;14.104;2022-11-20T12:52:02;100342.22;;;0.68;100.00
3122;BME280;1571;52.524;14.104;2022-11-20T12:54:55;100349.34;;;0.61;100.00
3122;BME280;1571;52.524;14.104;2022-11-20T12:57:38;100343.31;;;0.59;100.00
3122;BME280;1571;52.524;14.104;2022-11-20T13:00:12;100340.88;;;0.53;100.00
3122;BME280;1571;52.524;14.104;2022-11-20T13:03:00;100339.25;;;0.47;100.00
3122;BME280;1571;52.524;14.104;2022-11-20T13:05:40;100341.72;;;0.53;100.00
3122;BME280;1571;52.524;14.104;2022-11-20T13:08:16;100339.50;;;0.38;100.00
3122;BME280;1571;52.524;14.104;2022-11-20T13:10:54;100342.22;;;0.35;100.00
3122;BME280;1571;52.524;14.104;2022-11-20T13:13:33;100331.03;;;0.30;100.00
3122;BME280;1571;52.524;14.104;2022-11-20T13:16:06;100330.69;;;0.42;100.00
3122;BME280;1571;52.524;14.104;2022-11-20T13:18:41;100315.19;;;0.36;100.00
3122;BME280;1571;52.524;14.104;2022-11-20T13:21:16;100322.00;;;0.43;100.00